sensor_id;sensor_type;location;lat;lon;timestamp;temperature;humidity
4985;DHT22;2509;49.902;8.600;2023-06-24T00:03:01;20.00;99.90
4985;DHT22;2509;49.902;8.600;2023-06-24T00:06:03;20.00;99.90
4985;DHT22;2509;49.902;8.600;2023-06-24T00:09:06;19.90;99.90
4985;DHT22;2509;49.902;8.600;2023-06-24T00:12:08;19.90;99.90
4985;DHT22;2509;49.902;8.600;2023-06-24T00:15:10;19.80;99.90
4985;DHT22;2509;49.902;8.600;2023-06-24T00:18:12;19.80;99.90
4985;DHT22;2509;49.902;8.600;2023-06-24T00:21:14;19.70;99.90
4985;DHT22;2509;49.902;8.600;2023-06-24T00:24:18;19.70;99.90
4985;DHT22;2509;49.902;8.600;2023-06-24T00:27:23;19.70;99.90
4985;DHT22;2509;49.902;8.600;2023-06-24T00:30:26;19.70;99.90
4985;DHT22;2509;49.902;8.600;2023-06-24T00:33:28;19.70;99.90
4985;DHT22;2509;49.902;8.600;2023-06-24T00:36:30;19.70;99.90
4985;DHT22;2509;49.902;8.600;2023-06-24T00:39:34;19.70;99.90
4985;DHT22;2509;49.902;8.600;2023-06-24T00:42:36;19.70;99.90
4985;DHT22;2509;49.902;8.600;2023-06-24T00:45:38;19.60;99.90
4985;DHT22;2509;49.902;8.600;2023-06-24T00:48:41;19.50;99.90
4985;DHT22;2509;49.902;8.600;2023-06-24T00:51:43;19.60;99.90
4985;DHT22;2509;49.902;8.600;2023-06-24T00:54:52;19.50;99.90
4985;DHT22;2509;49.902;8.600;2023-06-24T00:57:53;19.40;99.90
4985;DHT22;2509;49.902;8.600;2023-06-24T01:00:57;19.40;99.90
4985;DHT22;2509;49.902;8.600;2023-06-24T01:04:00;19.40;99.90
4985;DHT22;2509;49.902;8.600;2023-06-24T01:07:04;19.40;99.90
4985;DHT22;2509;49.902;8.600;2023-06-24T01:10:12;19.30;99.90
4985;DHT22;2509;49.902;8.600;2023-06-24T01:13:15;19.30;99.90
4985;DHT22;2509;49.902;8.600;2023-06-24T01:16:33;19.20;99.90
4985;DHT22;2509;49.902;8.600;2023-06-24T01:19:53;19.20;99.90
4985;DHT22;2509;49.902;8.600;2023-06-24T01:23:27;19.20;99.90
4985;DHT22;2509;49.902;8.600;2023-06-24T01:26:52;19.20;99.90
4985;DHT22;2509;49.902;8.600;2023-06-24T01:33:36;19.10;99.90
4985;DHT22;2509;49.902;8.600;2023-06-24T01:36:40;19.00;99.90
4985;DHT22;2509;49.902;8.600;2023-06-24T01:39:47;19.00;99.90
4985;DHT22;2509;49.902;8.600;2023-06-24T01:42:50;18.90;99.90
4985;DHT22;2509;49.902;8.600;2023-06-24T01:45:55;18.90;99.90
4985;DHT22;2509;49.902;8.600;2023-06-24T01:49:01;18.80;99.90
4985;DHT22;2509;49.902;8.600;2023-06-24T01:52:05;18.80;99.90
4985;DHT22;2509;49.902;8.600;2023-06-24T01:55:11;18.80;99.90
4985;DHT22;2509;49.902;8.600;2023-06-24T01:58:17;18.70;99.90
4985;DHT22;2509;49.902;8.600;2023-06-24T02:01:20;18.70;99.90
4985;DHT22;2509;49.902;8.600;2023-06-24T02:04:25;18.70;99.90
4985;DHT22;2509;49.902;8.600;2023-06-24T02:07:32;18.70;99.90
4985;DHT22;2509;49.902;8.600;2023-06-24T02:10:35;18.60;99.90
4985;DHT22;2509;49.902;8.600;2023-06-24T02:13:39;18.60;99.90
4985;DHT22;2509;49.902;8.600;2023-06-24T02:16:42;18.60;99.90
4985;DHT22;2509;49.902;8.600;2023-06-24T02:19:46;18.50;99.90
4985;DHT22;2509;49.902;8.600;2023-06-24T02:22:49;18.50;99.90
4985;DHT22;2509;49.902;8.600;2023-06-24T02:25:51;18.50;99.90
4985;DHT22;2509;49.902;8.600;2023-06-24T02:28:53;18.50;99.90
4985;DHT22;2509;49.902;8.600;2023-06-24T02:31:55;18.40;99.90
4985;DHT22;2509;49.902;8.600;2023-06-24T02:34:59;18.40;99.90
4985;DHT22;2509;49.902;8.600;2023-06-24T02:38:00;18.40;99.90
4985;DHT22;2509;49.902;8.600;2023-06-24T02:41:03;18.40;99.90
4985;DHT22;2509;49.902;8.600;2023-06-24T02:44:05;18.30;99.90
4985;DHT22;2509;49.902;8.600;2023-06-24T02:47:08;18.20;99.90
4985;DHT22;2509;49.902;8.600;2023-06-24T02:50:12;18.20;99.90
4985;DHT22;2509;49.902;8.600;2023-06-24T02:53:15;18.20;99.90
4985;DHT22;2509;49.902;8.600;2023-06-24T02:56:17;18.20;99.90
4985;DHT22;2509;49.902;8.600;2023-06-24T02:59:21;18.20;99.90
4985;DHT22;2509;49.902;8.600;2023-06-24T03:02:23;18.20;99.90
4985;DHT22;2509;49.902;8.600;2023-06-24T03:05:27;18.20;99.90
4985;DHT22;2509;49.902;8.600;2023-06-24T03:08:31;18.20;99.90
4985;DHT22;2509;49.902;8.600;2023-06-24T03:11:40;18.10;99.90
4985;DHT22;2509;49.902;8.600;2023-06-24T03:14:42;18.10;99.90
4985;DHT22;2509;49.902;8.600;2023-06-24T03:17:44;18.10;99.90
4985;DHT22;2509;49.902;8.600;2023-06-24T03:20:47;18.10;99.90
4985;DHT22;2509;49.902;8.600;2023-06-24T03:23:49;18.10;99.90
4985;DHT22;2509;49.902;8.600;2023-06-24T03:26:50;18.20;99.90
4985;DHT22;2509;49.902;8.600;2023-06-24T03:29:57;18.10;99.90
4985;DHT22;2509;49.902;8.600;2023-06-24T03:32:59;18.10;99.90
4985;DHT22;2509;49.902;8.600;2023-06-24T03:36:02;18.10;99.90
4985;DHT22;2509;49.902;8.600;2023-06-24T03:39:04;18.10;99.90
4985;DHT22;2509;49.902;8.600;2023-06-24T03:42:06;18.10;99.90
4985;DHT22;2509;49.902;8.600;2023-06-24T03:45:08;18.10;99.90
4985;DHT22;2509;49.902;8.600;2023-06-24T03:48:10;18.00;99.90
4985;DHT22;2509;49.902;8.600;2023-06-24T03:51:13;18.00;99.90
4985;DHT22;2509;49.902;8.600;2023-06-24T03:54:15;18.00;99.90
4985;DHT22;2509;49.902;8.600;2023-06-24T03:57:16;18.00;99.90
4985;DHT22;2509;49.902;8.600;2023-06-24T04:00:18;18.10;99.90
4985;DHT22;2509;49.902;8.600;2023-06-24T04:03:21;18.10;99.90
4985;DHT22;2509;49.902;8.600;2023-06-24T04:06:24;18.10;99.90
4985;DHT22;2509;49.902;8.600;2023-06-24T04:09:26;18.10;99.90
4985;DHT22;2509;49.902;8.600;2023-06-24T04:12:27;18.20;99.90
4985;DHT22;2509;49.902;8.600;2023-06-24T04:15:29;18.20;99.90
4985;DHT22;2509;49.902;8.600;2023-06-24T04:18:31;18.10;99.90
4985;DHT22;2509;49.902;8.600;2023-06-24T04:21:34;18.10;99.90
4985;DHT22;2509;49.902;8.600;2023-06-24T04:24:36;18.10;99.90
4985;DHT22;2509;49.902;8.600;2023-06-24T04:27:37;18.20;99.90
4985;DHT22;2509;49.902;8.600;2023-06-24T04:30:39;18.20;99.90
4985;DHT22;2509;49.902;8.600;2023-06-24T04:33:41;18.30;99.90
4985;DHT22;2509;49.902;8.600;2023-06-24T04:36:44;18.30;99.90
4985;DHT22;2509;49.902;8.600;2023-06-24T04:39:46;18.40;99.90
4985;DHT22;2509;49.902;8.600;2023-06-24T04:42:49;18.40;99.90
4985;DHT22;2509;49.902;8.600;2023-06-24T04:45:51;18.40;99.90
4985;DHT22;2509;49.902;8.600;2023-06-24T04:48:55;18.40;99.90
4985;DHT22;2509;49.902;8.600;2023-06-24T04:52:01;18.40;99.90
4985;DHT22;2509;49.902;8.600;2023-06-24T04:55:03;18.40;99.90
4985;DHT22;2509;49.902;8.600;2023-06-24T04:58:05;18.40;99.90
4985;DHT22;2509;49.902;8.600;2023-06-24T05:01:07;18.50;99.90
4985;DHT22;2509;49.902;8.600;2023-06-24T05:04:09;18.50;99.90
4985;DHT22;2509;49.902;8.600;2023-06-24T05:07:12;18.50;99.90
4985;DHT22;2509;49.902;8.600;2023-06-24T05:10:14;18.50;99.90
4985;DHT22;2509;49.902;8.600;2023-06-24T05:13:15;18.50;99.90
4985;DHT22;2509;49.902;8.600;2023-06-24T05:16:17;18.60;99.90
4985;DHT22;2509;49.902;8.600;2023-06-24T05:19:19;18.70;99.90
4985;DHT22;2509;49.902;8.600;2023-06-24T05:22:22;18.80;99.90
4985;DHT22;2509;49.902;8.600;2023-06-24T05:25:24;18.80;99.90
4985;DHT22;2509;49.902;8.600;2023-06-24T05:28:25;18.90;99.90
4985;DHT22;2509;49.902;8.600;2023-06-24T05:31:27;19.00;99.90
4985;DHT22;2509;49.902;8.600;2023-06-24T05:34:29;19.10;99.90
4985;DHT22;2509;49.902;8.600;2023-06-24T05:37:32;19.10;99.90
4985;DHT22;2509;49.902;8.600;2023-06-24T05:40:35;19.10;99.90
4985;DHT22;2509;49.902;8.600;2023-06-24T05:43:36;19.20;99.90
4985;DHT22;2509;49.902;8.600;2023-06-24T05:46:38;19.30;99.90
4985;DHT22;2509;49.902;8.600;2023-06-24T05:49:40;19.30;99.90
4985;DHT22;2509;49.902;8.600;2023-06-24T05:52:43;19.40;99.90
4985;DHT22;2509;49.902;8.600;2023-06-24T05:55:45;19.40;99.90
4985;DHT22;2509;49.902;8.600;2023-06-24T05:58:46;19.50;99.90
4985;DHT22;2509;49.902;8.600;2023-06-24T06:01:48;19.50;99.90
4985;DHT22;2509;49.902;8.600;2023-06-24T06:04:50;19.60;99.90
4985;DHT22;2509;49.902;8.600;2023-06-24T06:07:53;19.70;99.90
4985;DHT22;2509;49.902;8.600;2023-06-24T06:10:55;19.70;99.90
4985;DHT22;2509;49.902;8.600;2023-06-24T06:13:57;19.90;99.90
4985;DHT22;2509;49.902;8.600;2023-06-24T06:16:58;20.00;99.90
4985;DHT22;2509;49.902;8.600;2023-06-24T06:20:00;20.10;99.90
4985;DHT22;2509;49.902;8.600;2023-06-24T06:23:03;20.20;99.90
4985;DHT22;2509;49.902;8.600;2023-06-24T06:26:05;20.30;99.90
4985;DHT22;2509;49.902;8.600;2023-06-24T06:29:07;20.50;99.90
4985;DHT22;2509;49.902;8.600;2023-06-24T06:32:09;20.50;99.90
4985;DHT22;2509;49.902;8.600;2023-06-24T06:35:11;20.70;99.90
4985;DHT22;2509;49.902;8.600;2023-06-24T06:38:14;20.70;99.90
4985;DHT22;2509;49.902;8.600;2023-06-24T06:41:15;20.80;99.90
4985;DHT22;2509;49.902;8.600;2023-06-24T06:44:18;21.00;99.90
4985;DHT22;2509;49.902;8.600;2023-06-24T06:47:19;21.10;99.90
4985;DHT22;2509;49.902;8.600;2023-06-24T06:50:21;21.30;99.90
4985;DHT22;2509;49.902;8.600;2023-06-24T06:53:24;21.50;99.90
4985;DHT22;2509;49.902;8.600;2023-06-24T06:56:26;21.60;99.90
4985;DHT22;2509;49.902;8.600;2023-06-24T06:59:28;21.50;99.90
4985;DHT22;2509;49.902;8.600;2023-06-24T07:02:29;21.70;99.90
4985;DHT22;2509;49.902;8.600;2023-06-24T07:05:31;21.90;99.90
4985;DHT22;2509;49.902;8.600;2023-06-24T07:08:35;22.00;99.90
4985;DHT22;2509;49.902;8.600;2023-06-24T07:11:36;22.10;99.90
4985;DHT22;2509;49.902;8.600;2023-06-24T07:14:38;22.20;99.90
4985;DHT22;2509;49.902;8.600;2023-06-24T07:17:40;22.40;99.90
4985;DHT22;2509;49.902;8.600;2023-06-24T07:20:42;22.60;99.90
4985;DHT22;2509;49.902;8.600;2023-06-24T07:23:45;22.80;99.90
4985;DHT22;2509;49.902;8.600;2023-06-24T07:26:47;22.90;99.90
4985;DHT22;2509;49.902;8.600;2023-06-24T07:29:48;23.00;99.90
4985;DHT22;2509;49.902;8.600;2023-06-24T07:32:50;23.20;99.90
4985;DHT22;2509;49.902;8.600;2023-06-24T07:35:52;23.20;99.90
4985;DHT22;2509;49.902;8.600;2023-06-24T07:38:55;23.30;99.90
4985;DHT22;2509;49.902;8.600;2023-06-24T07:41:57;23.50;99.90
4985;DHT22;2509;49.902;8.600;2023-06-24T07:44:58;23.50;99.90
4985;DHT22;2509;49.902;8.600;2023-06-24T07:48:00;23.50;99.90
4985;DHT22;2509;49.902;8.600;2023-06-24T07:51:02;23.60;99.90
4985;DHT22;2509;49.902;8.600;2023-06-24T07:54:05;23.60;99.90
4985;DHT22;2509;49.902;8.600;2023-06-24T07:57:07;23.70;99.90
4985;DHT22;2509;49.902;8.600;2023-06-24T08:00:09;23.90;99.90
4985;DHT22;2509;49.902;8.600;2023-06-24T08:03:12;24.00;99.90
4985;DHT22;2509;49.902;8.600;2023-06-24T08:06:14;24.20;99.90
4985;DHT22;2509;49.902;8.600;2023-06-24T08:09:17;24.20;99.90
4985;DHT22;2509;49.902;8.600;2023-06-24T08:12:19;24.30;99.90
4985;DHT22;2509;49.902;8.600;2023-06-24T08:15:21;24.60;99.90
4985;DHT22;2509;49.902;8.600;2023-06-24T08:18:23;24.80;99.90
4985;DHT22;2509;49.902;8.600;2023-06-24T08:21:24;24.90;99.90
4985;DHT22;2509;49.902;8.600;2023-06-24T08:24:27;25.00;99.90
4985;DHT22;2509;49.902;8.600;2023-06-24T08:27:29;25.10;99.90
4985;DHT22;2509;49.902;8.600;2023-06-24T08:31:07;25.10;99.90
4985;DHT22;2509;49.902;8.600;2023-06-24T08:34:09;25.20;99.90
4985;DHT22;2509;49.902;8.600;2023-06-24T08:37:11;25.30;99.90
4985;DHT22;2509;49.902;8.600;2023-06-24T08:40:14;25.50;99.90
4985;DHT22;2509;49.902;8.600;2023-06-24T08:43:16;25.60;99.40
4985;DHT22;2509;49.902;8.600;2023-06-24T08:46:18;26.00;99.20
4985;DHT22;2509;49.902;8.600;2023-06-24T08:49:27;26.20;98.20
4985;DHT22;2509;49.902;8.600;2023-06-24T08:52:31;26.30;96.70
4985;DHT22;2509;49.902;8.600;2023-06-24T08:55:39;26.50;96.30
4985;DHT22;2509;49.902;8.600;2023-06-24T08:58:41;26.50;97.40
4985;DHT22;2509;49.902;8.600;2023-06-24T09:01:43;26.90;95.30
4985;DHT22;2509;49.902;8.600;2023-06-24T09:04:44;27.10;94.90
4985;DHT22;2509;49.902;8.600;2023-06-24T09:07:46;27.10;94.60
4985;DHT22;2509;49.902;8.600;2023-06-24T09:10:54;27.10;94.40
4985;DHT22;2509;49.902;8.600;2023-06-24T09:13:56;27.30;93.60
4985;DHT22;2509;49.902;8.600;2023-06-24T09:16:59;27.60;92.40
4985;DHT22;2509;49.902;8.600;2023-06-24T09:20:04;27.70;91.60
4985;DHT22;2509;49.902;8.600;2023-06-24T09:23:06;27.90;92.30
4985;DHT22;2509;49.902;8.600;2023-06-24T09:26:11;27.90;91.40
4985;DHT22;2509;49.902;8.600;2023-06-24T09:29:13;27.90;92.70
4985;DHT22;2509;49.902;8.600;2023-06-24T09:32:15;28.00;90.80
4985;DHT22;2509;49.902;8.600;2023-06-24T09:35:18;28.10;90.70
4985;DHT22;2509;49.902;8.600;2023-06-24T09:38:32;28.30;90.10
4985;DHT22;2509;49.902;8.600;2023-06-24T09:41:35;28.30;89.90
4985;DHT22;2509;49.902;8.600;2023-06-24T09:44:37;28.20;90.90
4985;DHT22;2509;49.902;8.600;2023-06-24T09:47:39;28.20;90.90
4985;DHT22;2509;49.902;8.600;2023-06-24T09:50:41;28.30;90.60
4985;DHT22;2509;49.902;8.600;2023-06-24T09:53:43;28.30;90.60
4985;DHT22;2509;49.902;8.600;2023-06-24T09:56:49;28.40;89.70
4985;DHT22;2509;49.902;8.600;2023-06-24T09:59:51;28.60;88.80
4985;DHT22;2509;49.902;8.600;2023-06-24T10:02:54;28.60;89.70
4985;DHT22;2509;49.902;8.600;2023-06-24T10:05:56;28.60;88.90
4985;DHT22;2509;49.902;8.600;2023-06-24T10:08:59;28.90;87.90
4985;DHT22;2509;49.902;8.600;2023-06-24T10:12:02;29.30;87.00
4985;DHT22;2509;49.902;8.600;2023-06-24T10:15:05;29.60;87.10
4985;DHT22;2509;49.902;8.600;2023-06-24T10:18:35;29.60;86.70
4985;DHT22;2509;49.902;8.600;2023-06-24T10:21:47;29.70;88.70
4985;DHT22;2509;49.902;8.600;2023-06-24T10:24:51;29.80;85.90
4985;DHT22;2509;49.902;8.600;2023-06-24T10:27:55;29.70;87.80
4985;DHT22;2509;49.902;8.600;2023-06-24T10:30:56;29.60;87.60
4985;DHT22;2509;49.902;8.600;2023-06-24T10:33:58;29.60;88.70
4985;DHT22;2509;49.902;8.600;2023-06-24T10:37:02;29.70;85.80
4985;DHT22;2509;49.902;8.600;2023-06-24T10:40:05;29.60;86.20
4985;DHT22;2509;49.902;8.600;2023-06-24T10:43:26;30.00;85.90
4985;DHT22;2509;49.902;8.600;2023-06-24T10:46:33;30.20;84.90
4985;DHT22;2509;49.902;8.600;2023-06-24T10:49:34;30.50;83.40
4985;DHT22;2509;49.902;8.600;2023-06-24T10:52:37;30.60;83.10
4985;DHT22;2509;49.902;8.600;2023-06-24T10:55:39;30.80;82.50
4985;DHT22;2509;49.902;8.600;2023-06-24T10:58:55;30.70;81.40
4985;DHT22;2509;49.902;8.600;2023-06-24T11:01:56;30.80;83.70
4985;DHT22;2509;49.902;8.600;2023-06-24T11:04:59;31.00;83.30
4985;DHT22;2509;49.902;8.600;2023-06-24T11:08:01;31.10;82.90
4985;DHT22;2509;49.902;8.600;2023-06-24T11:11:03;31.00;82.90
4985;DHT22;2509;49.902;8.600;2023-06-24T11:14:06;30.80;80.40
4985;DHT22;2509;49.902;8.600;2023-06-24T11:17:09;31.10;80.20
4985;DHT22;2509;49.902;8.600;2023-06-24T11:20:13;31.60;80.40
4985;DHT22;2509;49.902;8.600;2023-06-24T11:23:15;31.90;82.70
4985;DHT22;2509;49.902;8.600;2023-06-24T11:26:16;31.70;79.70
4985;DHT22;2509;49.902;8.600;2023-06-24T11:29:28;31.40;79.90
4985;DHT22;2509;49.902;8.600;2023-06-24T11:32:36;31.20;79.30
4985;DHT22;2509;49.902;8.600;2023-06-24T11:35:38;30.60;81.00
4985;DHT22;2509;49.902;8.600;2023-06-24T11:38:39;30.10;82.00
4985;DHT22;2509;49.902;8.600;2023-06-24T11:41:41;29.90;82.90
4985;DHT22;2509;49.902;8.600;2023-06-24T11:44:44;30.60;80.40
4985;DHT22;2509;49.902;8.600;2023-06-24T11:47:47;31.80;77.60
4985;DHT22;2509;49.902;8.600;2023-06-24T11:50:53;33.10;74.40
4985;DHT22;2509;49.902;8.600;2023-06-24T11:53:58;33.80;74.30
4985;DHT22;2509;49.902;8.600;2023-06-24T11:57:00;34.30;73.70
4985;DHT22;2509;49.902;8.600;2023-06-24T12:00:12;34.00;74.30
4985;DHT22;2509;49.902;8.600;2023-06-24T12:03:14;33.90;74.20
4985;DHT22;2509;49.902;8.600;2023-06-24T12:06:16;34.00;74.90
4985;DHT22;2509;49.902;8.600;2023-06-24T12:09:17;34.10;74.20
4985;DHT22;2509;49.902;8.600;2023-06-24T12:12:19;34.40;71.90
4985;DHT22;2509;49.902;8.600;2023-06-24T12:15:22;34.70;72.70
4985;DHT22;2509;49.902;8.600;2023-06-24T12:18:24;35.20;70.00
4985;DHT22;2509;49.902;8.600;2023-06-24T12:21:26;35.70;69.80
4985;DHT22;2509;49.902;8.600;2023-06-24T12:24:27;35.70;69.60
4985;DHT22;2509;49.902;8.600;2023-06-24T12:27:29;35.40;68.30
4985;DHT22;2509;49.902;8.600;2023-06-24T12:30:32;35.80;67.40
4985;DHT22;2509;49.902;8.600;2023-06-24T12:33:34;36.80;66.80
4985;DHT22;2509;49.902;8.600;2023-06-24T12:36:36;37.70;65.20
4985;DHT22;2509;49.902;8.600;2023-06-24T12:39:37;38.50;66.10
4985;DHT22;2509;49.902;8.600;2023-06-24T12:42:39;39.00;64.90
4985;DHT22;2509;49.902;8.600;2023-06-24T12:45:42;39.10;65.40
4985;DHT22;2509;49.902;8.600;2023-06-24T12:48:44;38.20;66.70
4985;DHT22;2509;49.902;8.600;2023-06-24T12:51:46;35.70;67.90
4985;DHT22;2509;49.902;8.600;2023-06-24T12:54:47;34.50;70.10
4985;DHT22;2509;49.902;8.600;2023-06-24T12:57:49;34.10;71.00
4985;DHT22;2509;49.902;8.600;2023-06-24T13:00:52;32.90;72.20
4985;DHT22;2509;49.902;8.600;2023-06-24T13:03:54;32.60;72.60
4985;DHT22;2509;49.902;8.600;2023-06-24T13:06:56;32.60;72.60
4985;DHT22;2509;49.902;8.600;2023-06-24T13:09:58;32.30;73.60
4985;DHT22;2509;49.902;8.600;2023-06-24T13:13:00;33.70;73.00
4985;DHT22;2509;49.902;8.600;2023-06-24T13:16:03;34.90;68.90
4985;DHT22;2509;49.902;8.600;2023-06-24T13:19:05;35.00;69.90
4985;DHT22;2509;49.902;8.600;2023-06-24T13:22:06;34.50;69.90
4985;DHT22;2509;49.902;8.600;2023-06-24T13:25:08;34.00;70.50
4985;DHT22;2509;49.902;8.600;2023-06-24T13:28:10;33.60;71.00
4985;DHT22;2509;49.902;8.600;2023-06-24T13:31:13;33.80;72.10
4985;DHT22;2509;49.902;8.600;2023-06-24T13:34:15;35.10;69.70
4985;DHT22;2509;49.902;8.600;2023-06-24T13:37:17;36.30;67.50
4985;DHT22;2509;49.902;8.600;2023-06-24T13:40:18;37.10;65.40
4985;DHT22;2509;49.902;8.600;2023-06-24T13:43:20;37.90;65.40
4985;DHT22;2509;49.902;8.600;2023-06-24T13:46:23;38.90;62.90
4985;DHT22;2509;49.902;8.600;2023-06-24T13:49:25;39.10;62.70
4985;DHT22;2509;49.902;8.600;2023-06-24T13:52:27;39.60;61.60
4985;DHT22;2509;49.902;8.600;2023-06-24T13:55:29;39.20;63.30
4985;DHT22;2509;49.902;8.600;2023-06-24T13:58:31;39.50;61.30
4985;DHT22;2509;49.902;8.600;2023-06-24T14:01:34;38.90;63.00
4985;DHT22;2509;49.902;8.600;2023-06-24T14:04:36;38.40;65.10
4985;DHT22;2509;49.902;8.600;2023-06-24T14:07:39;37.60;66.20
4985;DHT22;2509;49.902;8.600;2023-06-24T14:10:41;38.20;64.70
4985;DHT22;2509;49.902;8.600;2023-06-24T14:13:43;37.70;64.90
4985;DHT22;2509;49.902;8.600;2023-06-24T14:16:46;36.40;66.30
4985;DHT22;2509;49.902;8.600;2023-06-24T14:19:48;34.70;68.20
4985;DHT22;2509;49.902;8.600;2023-06-24T14:22:50;34.00;70.30
4985;DHT22;2509;49.902;8.600;2023-06-24T14:25:52;33.40;70.50
4985;DHT22;2509;49.902;8.600;2023-06-24T14:28:54;32.90;71.60
4985;DHT22;2509;49.902;8.600;2023-06-24T14:31:57;32.60;72.40
4985;DHT22;2509;49.902;8.600;2023-06-24T14:34:59;32.50;72.90
4985;DHT22;2509;49.902;8.600;2023-06-24T14:38:01;32.50;73.80
4985;DHT22;2509;49.902;8.600;2023-06-24T14:41:02;32.40;73.00
4985;DHT22;2509;49.902;8.600;2023-06-24T14:44:04;33.20;73.20
4985;DHT22;2509;49.902;8.600;2023-06-24T14:47:07;33.80;72.10
4985;DHT22;2509;49.902;8.600;2023-06-24T14:50:09;34.00;70.60
4985;DHT22;2509;49.902;8.600;2023-06-24T14:53:11;34.80;69.10
4985;DHT22;2509;49.902;8.600;2023-06-24T14:56:13;35.00;69.80
4985;DHT22;2509;49.902;8.600;2023-06-24T14:59:14;35.40;68.40
4985;DHT22;2509;49.902;8.600;2023-06-24T15:02:18;35.40;68.60
4985;DHT22;2509;49.902;8.600;2023-06-24T15:05:19;35.10;68.30
4985;DHT22;2509;49.902;8.600;2023-06-24T15:08:21;35.10;69.90
4985;DHT22;2509;49.902;8.600;2023-06-24T15:11:25;35.60;68.80
4985;DHT22;2509;49.902;8.600;2023-06-24T15:14:27;35.40;69.40
4985;DHT22;2509;49.902;8.600;2023-06-24T15:17:30;35.60;67.90
4985;DHT22;2509;49.902;8.600;2023-06-24T15:20:35;35.70;68.50
4985;DHT22;2509;49.902;8.600;2023-06-24T15:23:36;35.90;68.80
4985;DHT22;2509;49.902;8.600;2023-06-24T15:26:38;35.70;67.40
4985;DHT22;2509;49.902;8.600;2023-06-24T15:29:40;35.80;68.50
4985;DHT22;2509;49.902;8.600;2023-06-24T15:32:43;36.40;67.70
4985;DHT22;2509;49.902;8.600;2023-06-24T15:35:46;36.00;67.00
4985;DHT22;2509;49.902;8.600;2023-06-24T15:38:48;35.20;68.90
4985;DHT22;2509;49.902;8.600;2023-06-24T15:41:50;35.60;67.90
4985;DHT22;2509;49.902;8.600;2023-06-24T15:44:51;35.90;67.40
4985;DHT22;2509;49.902;8.600;2023-06-24T15:47:55;35.90;67.30
4985;DHT22;2509;49.902;8.600;2023-06-24T15:50:56;35.30;68.00
4985;DHT22;2509;49.902;8.600;2023-06-24T15:53:59;34.80;69.10
4985;DHT22;2509;49.902;8.600;2023-06-24T15:57:01;34.60;69.10
4985;DHT22;2509;49.902;8.600;2023-06-24T16:00:04;34.30;69.20
4985;DHT22;2509;49.902;8.600;2023-06-24T16:03:07;34.10;68.70
4985;DHT22;2509;49.902;8.600;2023-06-24T16:06:09;33.50;69.20
4985;DHT22;2509;49.902;8.600;2023-06-24T16:09:10;32.80;70.40
4985;DHT22;2509;49.902;8.600;2023-06-24T16:12:13;32.50;70.80
4985;DHT22;2509;49.902;8.600;2023-06-24T16:15:16;32.30;71.80
4985;DHT22;2509;49.902;8.600;2023-06-24T16:18:19;32.20;71.50
4985;DHT22;2509;49.902;8.600;2023-06-24T16:21:21;32.60;71.70
4985;DHT22;2509;49.902;8.600;2023-06-24T16:24:23;32.30;71.90
4985;DHT22;2509;49.902;8.600;2023-06-24T16:27:25;32.00;73.10
4985;DHT22;2509;49.902;8.600;2023-06-24T16:30:27;31.90;74.00
4985;DHT22;2509;49.902;8.600;2023-06-24T16:33:30;31.70;73.90
4985;DHT22;2509;49.902;8.600;2023-06-24T16:36:32;31.50;74.40
4985;DHT22;2509;49.902;8.600;2023-06-24T16:39:33;31.50;74.60
4985;DHT22;2509;49.902;8.600;2023-06-24T16:42:35;31.90;74.10
4985;DHT22;2509;49.902;8.600;2023-06-24T16:45:37;32.00;73.40
4985;DHT22;2509;49.902;8.600;2023-06-24T16:48:40;32.10;72.80
4985;DHT22;2509;49.902;8.600;2023-06-24T16:51:42;32.00;73.00
4985;DHT22;2509;49.902;8.600;2023-06-24T16:54:43;31.90;74.00
4985;DHT22;2509;49.902;8.600;2023-06-24T16:57:45;31.80;74.10
4985;DHT22;2509;49.902;8.600;2023-06-24T17:00:47;31.40;75.30
4985;DHT22;2509;49.902;8.600;2023-06-24T17:03:50;31.30;75.40
4985;DHT22;2509;49.902;8.600;2023-06-24T17:06:52;31.40;75.60
4985;DHT22;2509;49.902;8.600;2023-06-24T17:09:54;31.30;74.40
4985;DHT22;2509;49.902;8.600;2023-06-24T17:12:55;31.10;75.70
4985;DHT22;2509;49.902;8.600;2023-06-24T17:15:57;31.00;76.00
4985;DHT22;2509;49.902;8.600;2023-06-24T17:19:00;30.80;75.80
4985;DHT22;2509;49.902;8.600;2023-06-24T17:22:02;30.60;76.50
4985;DHT22;2509;49.902;8.600;2023-06-24T17:25:05;30.50;78.20
4985;DHT22;2509;49.902;8.600;2023-06-24T17:28:06;30.50;80.50
4985;DHT22;2509;49.902;8.600;2023-06-24T17:31:08;30.30;81.40
4985;DHT22;2509;49.902;8.600;2023-06-24T17:34:11;30.10;81.10
4985;DHT22;2509;49.902;8.600;2023-06-24T17:37:13;29.70;82.50
4985;DHT22;2509;49.902;8.600;2023-06-24T17:40:15;29.60;80.80
4985;DHT22;2509;49.902;8.600;2023-06-24T17:43:16;29.60;83.30
4985;DHT22;2509;49.902;8.600;2023-06-24T17:46:18;29.30;82.30
4985;DHT22;2509;49.902;8.600;2023-06-24T17:49:21;29.20;84.60
4985;DHT22;2509;49.902;8.600;2023-06-24T17:52:23;29.00;86.40
4985;DHT22;2509;49.902;8.600;2023-06-24T17:55:25;28.90;87.20
4985;DHT22;2509;49.902;8.600;2023-06-24T17:58:27;28.90;88.20
4985;DHT22;2509;49.902;8.600;2023-06-24T18:01:29;28.80;88.50
4985;DHT22;2509;49.902;8.600;2023-06-24T18:04:32;28.60;87.10
4985;DHT22;2509;49.902;8.600;2023-06-24T18:07:34;28.40;86.50
4985;DHT22;2509;49.902;8.600;2023-06-24T18:10:36;28.40;87.50
4985;DHT22;2509;49.902;8.600;2023-06-24T18:13:39;28.20;87.40
4985;DHT22;2509;49.902;8.600;2023-06-24T18:16:47;28.10;88.50
4985;DHT22;2509;49.902;8.600;2023-06-24T18:19:50;28.00;87.50
4985;DHT22;2509;49.902;8.600;2023-06-24T18:22:52;28.00;89.70
4985;DHT22;2509;49.902;8.600;2023-06-24T18:25:53;27.90;91.80
4985;DHT22;2509;49.902;8.600;2023-06-24T18:28:55;27.90;90.20
4985;DHT22;2509;49.902;8.600;2023-06-24T18:31:57;27.80;88.40
4985;DHT22;2509;49.902;8.600;2023-06-24T18:35:00;27.80;90.30
4985;DHT22;2509;49.902;8.600;2023-06-24T18:38:02;27.60;91.00
4985;DHT22;2509;49.902;8.600;2023-06-24T18:41:04;27.60;90.40
4985;DHT22;2509;49.902;8.600;2023-06-24T18:44:06;27.60;89.30
4985;DHT22;2509;49.902;8.600;2023-06-24T18:47:09;27.60;90.60
4985;DHT22;2509;49.902;8.600;2023-06-24T18:50:12;27.60;89.30
4985;DHT22;2509;49.902;8.600;2023-06-24T18:53:13;27.50;89.10
4985;DHT22;2509;49.902;8.600;2023-06-24T18:56:15;27.40;92.10
4985;DHT22;2509;49.902;8.600;2023-06-24T18:59:17;27.50;90.80
4985;DHT22;2509;49.902;8.600;2023-06-24T19:02:19;27.50;92.30
4985;DHT22;2509;49.902;8.600;2023-06-24T19:05:22;27.40;92.10
4985;DHT22;2509;49.902;8.600;2023-06-24T19:08:24;27.40;93.40
4985;DHT22;2509;49.902;8.600;2023-06-24T19:11:26;27.30;92.00
4985;DHT22;2509;49.902;8.600;2023-06-24T19:14:28;27.30;93.30
4985;DHT22;2509;49.902;8.600;2023-06-24T19:17:29;27.20;92.00
4985;DHT22;2509;49.902;8.600;2023-06-24T19:20:32;27.10;90.90
4985;DHT22;2509;49.902;8.600;2023-06-24T19:23:34;27.00;91.10
4985;DHT22;2509;49.902;8.600;2023-06-24T19:26:36;26.90;92.60
4985;DHT22;2509;49.902;8.600;2023-06-24T19:29:38;26.90;93.10
4985;DHT22;2509;49.902;8.600;2023-06-24T19:32:39;26.90;93.60
4985;DHT22;2509;49.902;8.600;2023-06-24T19:35:45;26.80;92.10
4985;DHT22;2509;49.902;8.600;2023-06-24T19:38:46;26.70;92.20
4985;DHT22;2509;49.902;8.600;2023-06-24T19:41:48;26.60;92.60
4985;DHT22;2509;49.902;8.600;2023-06-24T19:44:50;26.60;94.00
4985;DHT22;2509;49.902;8.600;2023-06-24T19:47:52;26.60;94.40
4985;DHT22;2509;49.902;8.600;2023-06-24T19:50:55;26.50;94.30
4985;DHT22;2509;49.902;8.600;2023-06-24T19:53:57;26.50;95.00
4985;DHT22;2509;49.902;8.600;2023-06-24T19:56:59;26.50;95.60
4985;DHT22;2509;49.902;8.600;2023-06-24T20:00:01;26.40;94.80